Time;durP1;ratioP1;P1;durP2;ratioP2;P2;SDS_P1;SDS_P2;PMS_P1;PMS_P2;Temp;Humidity;BMP_temperature;BMP_pressure;BME280_temperature;BME280_humidity;BME280_pressure;Samples;Min_cycle;Max_cycle;Signal;HPM_P1;HPM_P2
2022/11/05 00:10:26;;;;;;;9.40;4.55;;;;;;;;;;5095148;27;20059;-71
2022/11/05 00:18:22;;;;;;;11.57;4.68;;;;;;;;;;5093001;28;20147;-69
2022/11/05 00:20:48;;;;;;;12.85;4.63;;;;;;;;;;5092426;28;20138;-70
2022/11/05 00:26:00;;;;;;;12.18;4.75;;;;;;;;;;5092378;28;20044;-69
2022/11/05 00:28:27;;;;;;;8.75;4.80;;;;;;;;;;5097866;28;20043;-69
2022/11/05 00:30:53;;;;;;;8.90;3.83;;;;;;;;;;5091427;28;20048;-71
2022/11/05 00:33:20;;;;;;;9.15;3.95;;;;;;;;;;5078730;28;20070;-71
2022/11/05 00:35:46;;;;;;;10.70;4.35;;;;;;;;;;5089846;28;20460;-70
2022/11/05 00:38:12;;;;;;;8.23;3.90;;;;;;;;;;5089813;28;20043;-69
2022/11/05 00:40:38;;;;;;;8.20;3.70;;;;;;;;;;5095046;28;20079;-68
2022/11/05 00:45:49;;;;;;;8.40;3.40;;;;;;;;;;5096414;28;20514;-71
2022/11/05 00:50:59;;;;;;;6.25;3.38;;;;;;;;;;5097625;27;20093;-69
2022/11/05 00:53:25;;;;;;;8.52;3.20;;;;;;;;;;5093821;28;20044;-71
2022/11/05 00:55:51;;;;;;;10.00;3.20;;;;;;;;;;5099395;27;20044;-71
2022/11/05 00:58:19;;;;;;;7.15;3.60;;;;;;;;;;5101922;27;20928;-69
2022/11/05 01:00:48;;;;;;;9.10;3.40;;;;;;;;;;5097402;27;20040;-69
2022/11/05 01:03:15;;;;;;;12.02;3.55;;;;;;;;;;5100254;27;20145;-71
2022/11/05 01:05:45;;;;;;;13.20;3.80;;;;;;;;;;5082431;28;20040;-70
2022/11/05 01:08:12;;;;;;;10.43;3.30;;;;;;;;;;5098299;27;20119;-69
2022/11/05 01:10:42;;;;;;;7.97;3.17;;;;;;;;;;5095847;28;20044;-69
2022/11/05 01:13:08;;;;;;;12.57;3.75;;;;;;;;;;5093529;27;20100;-69
2022/11/05 01:15:35;;;;;;;9.77;3.10;;;;;;;;;;5097587;27;20051;-69
2022/11/05 01:18:01;;;;;;;7.18;3.03;;;;;;;;;;5096289;28;20040;-70
2022/11/05 01:20:27;;;;;;;11.38;3.50;;;;;;;;;;5095804;27;20046;-71
2022/11/05 01:22:53;;;;;;;8.82;3.42;;;;;;;;;;5099942;27;20048;-71
2022/11/05 01:25:19;;;;;;;12.05;3.22;;;;;;;;;;5099201;27;20384;-68
2022/11/05 01:27:45;;;;;;;7.80;3.33;;;;;;;;;;5100644;28;20042;-71
2022/11/05 01:30:11;;;;;;;5.18;3.38;;;;;;;;;;5095842;28;20040;-68
2022/11/05 01:32:38;;;;;;;10.50;3.33;;;;;;;;;;5098023;28;20044;-73
2022/11/05 01:35:04;;;;;;;12.30;3.80;;;;;;;;;;5094284;28;20052;-71
2022/11/05 01:37:30;;;;;;;15.00;4.75;;;;;;;;;;5095450;28;20072;-69
2022/11/05 01:39:56;;;;;;;10.32;4.07;;;;;;;;;;5083281;28;20047;-71
2022/11/05 01:42:23;;;;;;;11.85;4.15;;;;;;;;;;5090399;28;20051;-71
2022/11/05 01:45:08;;;;;;;12.52;4.03;;;;;;;;;;5094698;28;20706;-72
2022/11/05 01:47:50;;;;;;;10.32;4.25;;;;;;;;;;5096417;28;20130;-71
2022/11/05 01:50:34;;;;;;;9.80;4.35;;;;;;;;;;5102044;28;20969;-69
2022/11/05 01:53:12;;;;;;;12.93;4.35;;;;;;;;;;5099400;28;20502;-69
2022/11/05 01:55:41;;;;;;;11.07;4.68;;;;;;;;;;5090274;28;20047;-71
2022/11/05 01:58:09;;;;;;;12.32;5.55;;;;;;;;;;5096730;28;20032;-71
2022/11/05 02:00:35;;;;;;;12.65;4.72;;;;;;;;;;5094841;28;20130;-69
2022/11/05 02:03:02;;;;;;;9.25;4.60;;;;;;;;;;5095488;28;21684;-70
2022/11/05 02:05:28;;;;;;;14.98;4.80;;;;;;;;;;5095383;28;20405;-70
2022/11/05 02:07:54;;;;;;;10.05;5.20;;;;;;;;;;5093440;28;20487;-72
2022/11/05 02:10:20;;;;;;;15.63;5.35;;;;;;;;;;5095367;28;20043;-69
2022/11/05 02:12:47;;;;;;;11.70;5.53;;;;;;;;;;5097237;28;20090;-69
2022/11/05 02:15:15;;;;;;;13.48;5.53;;;;;;;;;;5094015;28;20070;-71
2022/11/05 02:17:51;;;;;;;10.93;5.60;;;;;;;;;;5090933;28;20097;-69
2022/11/05 02:20:17;;;;;;;12.95;6.15;;;;;;;;;;5099742;28;20108;-71
2022/11/05 02:22:52;;;;;;;13.57;5.78;;;;;;;;;;5093386;28;20047;-69
2022/11/05 02:25:24;;;;;;;11.40;6.25;;;;;;;;;;5075067;28;20217;-69
2022/11/05 02:28:09;;;;;;;16.65;6.00;;;;;;;;;;5076743;28;20046;-71
2022/11/05 02:30:38;;;;;;;13.77;6.40;;;;;;;;;;5097122;28;20048;-72
2022/11/05 02:33:07;;;;;;;18.35;6.03;;;;;;;;;;5058078;27;1028337;-69
2022/11/05 02:35:33;;;;;;;15.95;6.88;;;;;;;;;;5094138;28;20462;-69
2022/11/05 02:38:02;;;;;;;7.88;5.25;;;;;;;;;;5095604;27;20068;-69
2022/11/05 02:40:28;;;;;;;13.75;5.35;;;;;;;;;;5096873;28;20127;-70
2022/11/05 02:43:14;;;;;;;12.85;5.35;;;;;;;;;;5098732;27;20142;-72
2022/11/05 02:45:52;;;;;;;15.90;5.40;;;;;;;;;;5092254;28;20040;-70
2022/11/05 02:48:25;;;;;;;10.20;5.05;;;;;;;;;;5095113;27;20044;-70
2022/11/05 02:50:51;;;;;;;10.90;5.40;;;;;;;;;;5097348;28;20039;-71
2022/11/05 02:53:24;;;;;;;14.48;5.20;;;;;;;;;;5091905;27;20393;-71
2022/11/05 02:55:58;;;;;;;13.93;5.18;;;;;;;;;;5099308;27;20044;-71
2022/11/05 02:58:24;;;;;;;15.18;6.07;;;;;;;;;;5092991;27;20135;-71
2022/11/05 03:00:58;;;;;;;14.55;5.75;;;;;;;;;;5094081;27;20913;-68
2022/11/05 03:03:27;;;;;;;13.18;5.82;;;;;;;;;;5093793;27;20085;-69
2022/11/05 03:06:11;;;;;;;16.27;5.55;;;;;;;;;;5078029;28;20139;-69
2022/11/05 03:08:58;;;;;;;12.02;5.65;;;;;;;;;;5090304;28;20036;-70
2022/11/05 03:11:26;;;;;;;10.55;5.85;;;;;;;;;;5100610;27;20046;-72
2022/11/05 03:14:02;;;;;;;12.13;5.20;;;;;;;;;;5096199;27;20054;-69
2022/11/05 03:16:35;;;;;;;10.50;5.22;;;;;;;;;;5093768;28;20117;-71
2022/11/05 03:19:07;;;;;;;12.90;5.53;;;;;;;;;;5091801;27;20051;-71
2022/11/05 03:21:39;;;;;;;10.32;5.40;;;;;;;;;;5094402;28;20052;-73
2022/11/05 03:24:12;;;;;;;10.25;6.10;;;;;;;;;;5094098;27;20054;-68
2022/11/05 03:26:40;;;;;;;11.15;5.60;;;;;;;;;;5092228;28;20036;-71
2022/11/05 03:29:10;;;;;;;12.07;5.90;;;;;;;;;;5097408;27;20105;-71
2022/11/05 03:31:36;;;;;;;13.60;6.15;;;;;;;;;;5089771;28;20040;-71
2022/11/05 03:34:03;;;;;;;12.45;6.40;;;;;;;;;;5092666;28;20044;-70
2022/11/05 03:36:38;;;;;;;13.38;6.65;;;;;;;;;;5096004;27;20079;-69
2022/11/05 03:39:05;;;;;;;12.07;6.65;;;;;;;;;;5096659;27;20069;-71
2022/11/05 03:41:32;;;;;;;14.60;6.40;;;;;;;;;;5097185;28;20398;-70
2022/11/05 03:43:59;;;;;;;16.25;6.63;;;;;;;;;;5096374;28;20050;-69
2022/11/05 03:46:31;;;;;;;13.80;6.25;;;;;;;;;;5091066;28;20043;-71
2022/11/05 03:48:58;;;;;;;13.10;6.03;;;;;;;;;;5095968;27;20089;-71
2022/11/05 03:51:27;;;;;;;14.65;6.47;;;;;;;;;;5091429;28;20100;-71
2022/11/05 03:53:58;;;;;;;17.23;6.75;;;;;;;;;;5094349;28;20148;-68
2022/11/05 03:56:43;;;;;;;17.65;6.43;;;;;;;;;;5093725;28;20047;-71
2022/11/05 03:59:10;;;;;;;18.58;6.30;;;;;;;;;;5096000;28;20490;-71
2022/11/05 04:01:37;;;;;;;13.88;6.15;;;;;;;;;;5096437;28;20055;-70
2022/11/05 04:04:07;;;;;;;9.50;5.35;;;;;;;;;;5096063;27;20050;-71
2022/11/05 04:14:46;;;;;;;13.30;4.93;;;;;;;;;;5088377;28;20040;-72
2022/11/05 04:17:13;;;;;;;10.73;4.80;;;;;;;;;;5094508;28;20055;-71
2022/11/05 04:25:10;;;;;;;8.65;5.10;;;;;;;;;;5095872;28;20080;-71
2022/11/05 04:27:36;;;;;;;10.07;4.35;;;;;;;;;;5095400;28;20044;-69
2022/11/05 04:30:18;;;;;;;11.95;5.68;;;;;;;;;;5095999;28;20505;-71
2022/11/05 04:33:03;;;;;;;10.93;4.50;;;;;;;;;;5093847;28;20051;-69
2022/11/05 04:35:36;;;;;;;10.55;4.28;;;;;;;;;;5093396;28;20112;-71
2022/11/05 04:38:03;;;;;;;12.57;4.85;;;;;;;;;;5091812;28;20086;-71
2022/11/05 04:40:29;;;;;;;11.88;4.72;;;;;;;;;;5091149;28;20040;-71
2022/11/05 04:42:55;;;;;;;9.57;4.50;;;;;;;;;;5090654;28;20097;-69
2022/11/05 04:45:26;;;;;;;15.35;4.70;;;;;;;;;;5094011;28;20075;-73
2022/11/05 04:47:52;;;;;;;15.73;4.97;;;;;;;;;;5091846;28;20058;-70
2022/11/05 04:50:18;;;;;;;11.52;4.65;;;;;;;;;;5095571;28;20039;-71
2022/11/05 04:52:44;;;;;;;7.78;4.25;;;;;;;;;;5091326;28;20050;-70
2022/11/05 04:55:10;;;;;;;9.95;4.65;;;;;;;;;;5091662;28;20065;-69
2022/11/05 04:57:36;;;;;;;11.07;4.57;;;;;;;;;;5091768;28;20054;-68
2022/11/05 05:00:02;;;;;;;10.07;4.15;;;;;;;;;;5098808;28;20387;-70
2022/11/05 05:02:28;;;;;;;10.30;4.57;;;;;;;;;;5094108;28;20131;-71
2022/11/05 05:04:54;;;;;;;7.32;4.07;;;;;;;;;;5091422;28;20175;-68
2022/11/05 05:07:20;;;;;;;9.02;4.57;;;;;;;;;;5090214;28;20048;-71
2022/11/05 05:09:46;;;;;;;10.52;4.28;;;;;;;;;;5090092;28;20051;-69
2022/11/05 05:12:12;;;;;;;9.98;4.57;;;;;;;;;;5093780;28;20401;-69
2022/11/05 05:14:38;;;;;;;8.63;4.63;;;;;;;;;;5092306;28;20116;-70
2022/11/05 05:17:05;;;;;;;11.98;4.65;;;;;;;;;;5092455;28;20048;-69
2022/11/05 05:21:37;;;;;;;11.60;4.68;;;;;;;;;;5080303;28;20046;-70
2022/11/05 05:22:16;;;;;;;17.65;4.90;;;;;;;;;;5098820;28;20053;-71
2022/11/05 05:24:42;;;;;;;14.15;5.20;;;;;;;;;;5096196;28;20052;-69
2022/11/05 05:27:09;;;;;;;8.98;4.60;;;;;;;;;;5096020;27;20044;-71
2022/11/05 05:29:35;;;;;;;11.77;4.57;;;;;;;;;;5095877;27;20043;-69
2022/11/05 05:32:01;;;;;;;9.15;5.45;;;;;;;;;;5094638;27;20040;-71
2022/11/05 05:34:27;;;;;;;9.90;5.03;;;;;;;;;;5097327;28;20127;-69
2022/11/05 05:36:53;;;;;;;11.48;4.93;;;;;;;;;;5096897;28;20462;-69
2022/11/05 05:39:19;;;;;;;12.15;4.90;;;;;;;;;;5081325;27;21815;-70
2022/11/05 05:41:45;;;;;;;8.95;4.80;;;;;;;;;;5097656;27;20138;-70
2022/11/05 05:44:11;;;;;;;10.52;4.68;;;;;;;;;;5095746;27;20043;-69
2022/11/05 05:46:37;;;;;;;10.77;4.78;;;;;;;;;;5098213;27;20044;-69
2022/11/05 05:49:03;;;;;;;13.93;4.93;;;;;;;;;;5097852;27;20058;-69
2022/11/05 05:51:29;;;;;;;10.23;4.25;;;;;;;;;;5098775;27;20050;-71
2022/11/05 05:53:54;;;;;;;8.75;4.63;;;;;;;;;;5098169;28;20130;-69
2022/11/05 05:56:21;;;;;;;8.80;4.90;;;;;;;;;;5098620;27;20039;-71
2022/11/05 05:58:47;;;;;;;10.20;4.97;;;;;;;;;;5091876;27;20044;-69
2022/11/05 06:01:14;;;;;;;10.60;5.63;;;;;;;;;;5094193;27;20044;-68
2022/11/05 06:03:40;;;;;;;11.25;5.28;;;;;;;;;;5093572;28;20058;-69
2022/11/05 06:06:08;;;;;;;11.18;4.90;;;;;;;;;;5097859;28;20043;-70
2022/11/05 06:08:34;;;;;;;14.32;4.70;;;;;;;;;;5096800;27;20056;-71
2022/11/05 06:11:01;;;;;;;8.05;4.47;;;;;;;;;;5096174;27;20035;-70
2022/11/05 06:13:28;;;;;;;10.50;5.07;;;;;;;;;;5094915;27;20529;-69
2022/11/05 06:15:59;;;;;;;9.25;5.93;;;;;;;;;;5096085;27;20052;-69
2022/11/05 06:18:25;;;;;;;12.45;5.15;;;;;;;;;;5097611;27;20036;-71
2022/11/05 06:20:50;;;;;;;11.45;5.07;;;;;;;;;;5095146;27;20138;-70
2022/11/05 06:23:16;;;;;;;12.32;5.20;;;;;;;;;;5099894;27;20059;-70
2022/11/05 06:25:42;;;;;;;10.85;4.70;;;;;;;;;;5095848;28;20040;-68
2022/11/05 06:28:08;;;;;;;15.88;5.20;;;;;;;;;;5096835;27;20492;-71
2022/11/05 06:30:34;;;;;;;13.88;5.57;;;;;;;;;;5094329;28;20044;-69
2022/11/05 06:33:04;;;;;;;16.17;5.07;;;;;;;;;;5097294;27;20122;-69
2022/11/05 06:35:31;;;;;;;17.90;5.60;;;;;;;;;;5092926;28;20127;-72
2022/11/05 06:38:00;;;;;;;15.82;5.78;;;;;;;;;;5091184;27;20064;-71
2022/11/05 06:40:26;;;;;;;11.90;5.45;;;;;;;;;;5094849;27;21146;-69
2022/11/05 06:42:52;;;;;;;10.90;5.72;;;;;;;;;;5095175;28;20044;-69
2022/11/05 06:45:19;;;;;;;11.65;5.65;;;;;;;;;;5097279;27;20062;-69
2022/11/05 06:47:45;;;;;;;12.52;5.45;;;;;;;;;;5092927;27;20043;-71
2022/11/05 06:50:11;;;;;;;10.18;5.45;;;;;;;;;;5098348;28;20040;-70
2022/11/05 06:52:37;;;;;;;14.43;6.40;;;;;;;;;;5097049;27;20135;-71
2022/11/05 06:55:03;;;;;;;11.68;6.45;;;;;;;;;;5095483;28;20081;-71
2022/11/05 06:57:29;;;;;;;9.48;5.85;;;;;;;;;;5092763;28;20097;-72
2022/11/05 06:59:55;;;;;;;12.35;6.13;;;;;;;;;;5093354;28;20063;-69
2022/11/05 07:02:21;;;;;;;9.63;6.13;;;;;;;;;;5093126;27;20413;-71
2022/11/05 07:04:47;;;;;;;15.82;6.90;;;;;;;;;;5094023;28;20123;-71
2022/11/05 07:07:13;;;;;;;11.43;7.05;;;;;;;;;;5092934;28;20517;-73
2022/11/05 07:09:41;;;;;;;12.15;6.47;;;;;;;;;;5096130;27;20040;-71
2022/11/05 07:12:08;;;;;;;11.60;6.47;;;;;;;;;;5099529;27;20047;-70
2022/11/05 07:14:34;;;;;;;13.43;6.70;;;;;;;;;;5099621;27;20101;-70
2022/11/05 07:17:00;;;;;;;22.40;7.50;;;;;;;;;;5096312;27;20059;-71
2022/11/05 07:19:26;;;;;;;13.52;7.28;;;;;;;;;;5100945;27;20128;-69
2022/11/05 07:21:52;;;;;;;13.77;7.28;;;;;;;;;;5094955;28;20477;-69
2022/11/05 07:24:18;;;;;;;13.30;6.95;;;;;;;;;;5092386;28;20052;-71
2022/11/05 07:26:44;;;;;;;11.18;7.28;;;;;;;;;;5088061;28;20093;-69
2022/11/05 07:29:10;;;;;;;11.52;7.35;;;;;;;;;;5093364;28;20527;-69
2022/11/05 07:31:36;;;;;;;12.07;8.20;;;;;;;;;;5090750;28;20051;-72
2022/11/05 07:34:02;;;;;;;11.60;8.13;;;;;;;;;;5097126;27;20047;-69
2022/11/05 07:36:28;;;;;;;14.80;7.85;;;;;;;;;;5091798;28;20711;-71
2022/11/05 07:38:54;;;;;;;10.40;7.43;;;;;;;;;;5098765;27;20050;-69
2022/11/05 07:41:20;;;;;;;11.90;7.38;;;;;;;;;;5080972;28;20043;-69
2022/11/05 07:43:46;;;;;;;14.00;8.10;;;;;;;;;;5099882;27;20042;-69
2022/11/05 07:46:12;;;;;;;13.63;8.40;;;;;;;;;;5093799;28;21896;-68
2022/11/05 07:48:38;;;;;;;13.70;8.00;;;;;;;;;;5092926;27;20032;-69
2022/11/05 07:51:04;;;;;;;12.70;7.93;;;;;;;;;;5096023;28;20067;-69
2022/11/05 07:53:30;;;;;;;10.07;7.72;;;;;;;;;;5092435;28;20048;-68
2022/11/05 07:55:57;;;;;;;11.60;7.35;;;;;;;;;;5089467;28;20063;-69
2022/11/05 07:58:23;;;;;;;13.23;7.97;;;;;;;;;;5093555;28;20052;-70
2022/11/05 08:00:50;;;;;;;11.43;8.15;;;;;;;;;;5093180;28;20659;-71
2022/11/05 08:03:16;;;;;;;11.07;7.80;;;;;;;;;;5092124;28;20048;-71
2022/11/05 08:05:44;;;;;;;10.02;7.28;;;;;;;;;;5093204;28;20047;-71
2022/11/05 08:08:12;;;;;;;13.93;8.23;;;;;;;;;;5078311;28;20059;-71
2022/11/05 08:10:38;;;;;;;12.80;8.38;;;;;;;;;;5095431;28;20047;-71
2022/11/05 08:13:05;;;;;;;12.52;7.72;;;;;;;;;;5093094;28;20036;-70
2022/11/05 08:15:31;;;;;;;11.20;8.32;;;;;;;;;;5090786;28;20039;-71
2022/11/05 08:18:02;;;;;;;15.23;7.57;;;;;;;;;;5090085;28;20196;-69
2022/11/05 08:20:28;;;;;;;14.38;7.97;;;;;;;;;;5093686;28;20047;-70
2022/11/05 08:22:54;;;;;;;12.40;8.10;;;;;;;;;;5090684;28;20093;-70
2022/11/05 08:25:20;;;;;;;12.85;7.60;;;;;;;;;;5091865;28;20084;-70
2022/11/05 08:27:47;;;;;;;10.27;7.25;;;;;;;;;;5090588;28;20040;-72
2022/11/05 08:30:13;;;;;;;11.73;6.97;;;;;;;;;;5095397;28;20036;-69
2022/11/05 08:32:39;;;;;;;10.52;7.32;;;;;;;;;;5092733;28;20130;-71
2022/11/05 08:35:05;;;;;;;11.68;7.07;;;;;;;;;;5091189;28;20131;-71
2022/11/05 08:37:32;;;;;;;8.07;6.85;;;;;;;;;;5090870;28;20046;-69
2022/11/05 08:39:58;;;;;;;11.00;6.90;;;;;;;;;;5094847;28;20052;-71
2022/11/05 08:42:24;;;;;;;9.40;7.05;;;;;;;;;;5091682;28;20051;-71
2022/11/05 08:44:50;;;;;;;10.10;6.45;;;;;;;;;;5087975;28;20083;-70
2022/11/05 08:47:16;;;;;;;8.65;6.63;;;;;;;;;;5091598;28;20986;-69
2022/11/05 08:49:42;;;;;;;9.85;6.50;;;;;;;;;;5093331;28;20104;-71
2022/11/05 08:52:07;;;;;;;8.13;5.80;;;;;;;;;;5092835;28;20989;-69
2022/11/05 08:54:33;;;;;;;11.73;6.45;;;;;;;;;;5091113;28;20059;-70
2022/11/05 08:56:59;;;;;;;10.75;6.05;;;;;;;;;;5091194;28;20050;-70
2022/11/05 08:59:28;;;;;;;8.73;6.00;;;;;;;;;;5092210;28;20113;-71
2022/11/05 09:01:54;;;;;;;10.30;6.60;;;;;;;;;;5103251;28;20043;-70
2022/11/05 09:04:20;;;;;;;9.32;6.03;;;;;;;;;;5104692;28;20061;-72
2022/11/05 09:06:46;;;;;;;10.30;5.80;;;;;;;;;;5101346;28;20119;-71
2022/11/05 09:09:12;;;;;;;8.15;5.72;;;;;;;;;;5097817;27;20055;-76
2022/11/05 09:11:38;;;;;;;7.22;5.10;;;;;;;;;;5094507;28;20043;-68
2022/11/05 09:14:03;;;;;;;7.65;5.50;;;;;;;;;;5090243;28;20040;-70
2022/11/05 09:16:33;;;;;;;8.88;5.60;;;;;;;;;;5094375;27;20494;-72
2022/11/05 09:18:59;;;;;;;9.18;5.30;;;;;;;;;;5092848;28;20413;-71
2022/11/05 09:21:25;;;;;;;6.65;5.28;;;;;;;;;;5097437;27;20040;-72
2022/11/05 09:23:50;;;;;;;9.25;5.47;;;;;;;;;;5079113;28;20035;-72
2022/11/05 09:26:16;;;;;;;8.65;5.03;;;;;;;;;;5095823;27;20074;-70
2022/11/05 09:28:43;;;;;;;6.95;5.18;;;;;;;;;;5098093;27;20371;-69
2022/11/05 09:31:10;;;;;;;7.93;4.82;;;;;;;;;;5094043;27;20514;-72
2022/11/05 09:33:37;;;;;;;7.55;4.95;;;;;;;;;;5095702;27;20069;-71
2022/11/05 09:36:03;;;;;;;11.23;5.00;;;;;;;;;;5100367;27;20056;-70
2022/11/05 09:38:29;;;;;;;12.25;4.90;;;;;;;;;;5093150;27;20054;-71
2022/11/05 09:40:55;;;;;;;8.77;4.28;;;;;;;;;;5091720;27;20044;-71
2022/11/05 09:43:23;;;;;;;8.35;4.43;;;;;;;;;;5094210;28;20036;-72
2022/11/05 09:45:50;;;;;;;7.03;4.30;;;;;;;;;;5099232;27;20040;-70
2022/11/05 09:48:17;;;;;;;9.55;3.78;;;;;;;;;;5097503;28;20043;-69
2022/11/05 09:50:44;;;;;;;7.25;4.22;;;;;;;;;;5093244;28;20040;-71
2022/11/05 09:53:14;;;;;;;7.60;3.97;;;;;;;;;;5095729;27;20482;-71
2022/11/05 09:55:42;;;;;;;6.28;4.60;;;;;;;;;;5091948;28;20447;-71
2022/11/05 09:58:17;;;;;;;6.55;4.60;;;;;;;;;;5097472;27;20052;-70
2022/11/05 10:00:43;;;;;;;6.97;4.30;;;;;;;;;;5098923;27;20487;-74
2022/11/05 10:03:14;;;;;;;8.88;4.35;;;;;;;;;;5095247;27;20056;-69
2022/11/05 10:05:40;;;;;;;10.45;4.25;;;;;;;;;;5097031;27;20124;-70
2022/11/05 10:08:27;;;;;;;6.72;4.25;;;;;;;;;;5095779;27;20051;-69
2022/11/05 10:10:55;;;;;;;9.10;4.10;;;;;;;;;;5089840;28;20051;-70
2022/11/05 10:13:21;;;;;;;7.95;4.03;;;;;;;;;;5102719;27;20067;-69
2022/11/05 10:16:06;;;;;;;7.60;3.40;;;;;;;;;;5093709;28;20040;-69
2022/11/05 10:18:33;;;;;;;11.40;4.20;;;;;;;;;;5092649;28;20762;-68
2022/11/05 10:21:00;;;;;;;8.13;3.72;;;;;;;;;;5097761;27;20040;-68
2022/11/05 10:23:27;;;;;;;7.05;3.42;;;;;;;;;;5095733;27;20101;-70
2022/11/05 10:25:54;;;;;;;6.88;3.38;;;;;;;;;;5098949;27;20071;-70
2022/11/05 10:28:22;;;;;;;5.40;3.10;;;;;;;;;;5096638;28;20051;-69
2022/11/05 10:30:51;;;;;;;6.18;2.95;;;;;;;;;;5093460;27;20054;-69
2022/11/05 10:33:32;;;;;;;7.65;3.30;;;;;;;;;;5088209;28;20246;-70
2022/11/05 10:36:01;;;;;;;9.68;3.10;;;;;;;;;;5093474;27;20063;-69
2022/11/05 10:38:27;;;;;;;10.05;3.55;;;;;;;;;;5099383;27;20046;-70
2022/11/05 10:40:57;;;;;;;6.18;2.88;;;;;;;;;;5096341;27;21661;-69
2022/11/05 10:43:39;;;;;;;8.10;2.70;;;;;;;;;;5096429;27;20044;-71
2022/11/05 10:46:11;;;;;;;6.10;2.80;;;;;;;;;;5092898;28;20044;-68
2022/11/05 10:48:45;;;;;;;8.90;2.97;;;;;;;;;;5093243;27;20036;-72
2022/11/05 10:51:11;;;;;;;6.28;3.00;;;;;;;;;;5091461;28;20402;-70
2022/11/05 10:53:38;;;;;;;6.57;2.70;;;;;;;;;;5093198;27;20047;-70
2022/11/05 10:56:19;;;;;;;4.00;2.83;;;;;;;;;;5094407;27;20047;-67
2022/11/05 10:58:53;;;;;;;7.30;3.10;;;;;;;;;;5092823;28;20055;-67
2022/11/05 11:01:19;;;;;;;7.47;3.17;;;;;;;;;;5092064;27;20051;-70
2022/11/05 11:03:46;;;;;;;6.00;2.70;;;;;;;;;;5094810;28;20056;-70
2022/11/05 11:06:35;;;;;;;7.45;3.17;;;;;;;;;;5093141;27;20044;-70
2022/11/05 11:09:02;;;;;;;8.52;2.92;;;;;;;;;;5097957;27;20131;-70
2022/11/05 11:11:30;;;;;;;6.50;3.00;;;;;;;;;;5091887;28;20032;-67
2022/11/05 11:13:56;;;;;;;5.38;2.30;;;;;;;;;;5095154;28;20040;-69
2022/11/05 11:16:24;;;;;;;8.75;2.10;;;;;;;;;;5094814;27;20058;-69
2022/11/05 11:18:54;;;;;;;5.57;2.08;;;;;;;;;;5100358;28;20052;-70
2022/11/05 11:21:22;;;;;;;4.00;2.00;;;;;;;;;;5107526;27;20043;-70
2022/11/05 11:24:05;;;;;;;2.70;1.60;;;;;;;;;;5102636;27;20044;-68
2022/11/05 11:26:39;;;;;;;5.32;2.03;;;;;;;;;;5111714;27;20498;-68
2022/11/05 11:29:15;;;;;;;4.45;2.00;;;;;;;;;;5109102;27;20048;-68
2022/11/05 11:31:41;;;;;;;3.92;2.20;;;;;;;;;;5106505;27;20040;-68
2022/11/05 11:34:20;;;;;;;7.32;2.20;;;;;;;;;;5114737;27;20051;-68
2022/11/05 11:36:48;;;;;;;4.65;2.13;;;;;;;;;;5106419;28;20047;-68
2022/11/05 11:39:29;;;;;;;5.60;2.28;;;;;;;;;;5105715;27;20437;-67
2022/11/05 11:41:57;;;;;;;3.72;1.95;;;;;;;;;;5099998;28;20062;-69
2022/11/05 11:44:28;;;;;;;5.80;2.25;;;;;;;;;;5106279;27;20076;-68
2022/11/05 11:47:00;;;;;;;7.38;2.03;;;;;;;;;;5103859;27;20498;-68
2022/11/05 11:49:26;;;;;;;;;;;;;;;;;;5105878;27;20509;-67
2022/11/05 11:51:58;;;;;;;8.02;2.13;;;;;;;;;;5104076;28;19926;-68
2022/11/05 11:54:24;;;;;;;6.77;2.37;;;;;;;;;;5109908;27;20043;-68
2022/11/05 11:56:50;;;;;;;6.22;2.35;;;;;;;;;;5090520;28;20177;-68
2022/11/05 11:59:27;;;;;;;5.45;2.00;;;;;;;;;;5113032;27;20161;-67
2022/11/05 12:02:11;;;;;;;7.30;2.10;;;;;;;;;;5110791;27;20116;-67
2022/11/05 12:04:42;;;;;;;6.68;2.47;;;;;;;;;;5098053;28;20048;-67
2022/11/05 12:07:11;;;;;;;4.95;2.30;;;;;;;;;;5108179;27;20071;-67
2022/11/05 12:09:56;;;;;;;6.25;2.55;;;;;;;;;;5103727;28;20708;-67
2022/11/05 12:12:27;;;;;;;7.07;2.58;;;;;;;;;;5096774;28;20497;-69
2022/11/05 12:15:03;;;;;;;6.63;2.83;;;;;;;;;;5095465;28;20139;-67
2022/11/05 12:17:38;;;;;;;6.40;2.90;;;;;;;;;;5103991;27;20081;-67
2022/11/05 12:20:16;;;;;;;7.95;2.90;;;;;;;;;;5101275;28;20367;-69
2022/11/05 12:22:56;;;;;;;6.88;2.95;;;;;;;;;;5103238;28;20050;-68
2022/11/05 12:25:21;;;;;;;9.55;3.22;;;;;;;;;;5097541;27;20092;-69
2022/11/05 12:27:51;;;;;;;9.02;3.03;;;;;;;;;;5111158;27;20043;-67
2022/11/05 12:30:20;;;;;;;9.45;3.45;;;;;;;;;;5116216;28;20047;-68
2022/11/05 12:32:49;;;;;;;9.07;3.72;;;;;;;;;;5106111;28;20154;-67
2022/11/05 12:35:27;;;;;;;7.32;3.50;;;;;;;;;;5105234;28;20082;-68
2022/11/05 12:38:02;;;;;;;7.35;3.38;;;;;;;;;;5107453;27;20047;-69
2022/11/05 12:40:47;;;;;;;8.65;3.60;;;;;;;;;;5114318;27;20043;-69
2022/11/05 12:43:30;;;;;;;6.90;3.35;;;;;;;;;;5106556;27;20101;-68
2022/11/05 12:45:55;;;;;;;;;;;;;;;;;;5104208;27;20052;-69
2022/11/05 12:48:35;;;;;;;8.25;3.40;;;;;;;;;;5106628;28;20289;-69
2022/11/05 12:51:07;;;;;;;7.10;3.13;;;;;;;;;;5112444;27;20120;-70
2022/11/05 12:53:33;;;;;;;;;;;;;;;;;;5105489;27;20054;-68
2022/11/05 12:56:03;;;;;;;9.05;3.40;;;;;;;;;;5102352;27;19916;-70
2022/11/05 12:58:35;;;;;;;9.95;3.40;;;;;;;;;;5110137;27;20035;-69
2022/11/05 13:01:03;;;;;;;11.80;3.63;;;;;;;;;;5101686;27;20550;-68
2022/11/05 13:03:47;;;;;;;7.10;3.40;;;;;;;;;;5110524;27;20046;-67
2022/11/05 13:06:15;;;;;;;8.38;3.13;;;;;;;;;;5103257;27;20063;-66
2022/11/05 13:08:44;;;;;;;6.30;3.30;;;;;;;;;;5110547;27;20040;-67
2022/11/05 13:11:10;;;;;;;8.15;3.28;;;;;;;;;;5111367;27;20113;-69
2022/11/05 13:13:42;;;;;;;8.45;3.45;;;;;;;;;;5102516;27;20071;-66
2022/11/05 13:16:14;;;;;;;10.13;3.33;;;;;;;;;;5104837;27;20125;-69
2022/11/05 13:18:46;;;;;;;10.02;3.97;;;;;;;;;;5093029;28;20040;-71
2022/11/05 13:21:13;;;;;;;11.60;4.00;;;;;;;;;;5099222;28;20054;-68
2022/11/05 13:23:41;;;;;;;12.07;4.32;;;;;;;;;;5106884;28;20301;-67
2022/11/05 13:26:22;;;;;;;8.13;4.65;;;;;;;;;;5106125;28;20508;-67
2022/11/05 13:28:58;;;;;;;9.00;4.82;;;;;;;;;;5103597;28;20592;-71
2022/11/05 13:31:29;;;;;;;9.10;4.22;;;;;;;;;;5105883;28;20058;-68
2022/11/05 13:33:55;;;;;;;8.13;4.15;;;;;;;;;;5101593;28;20515;-68
2022/11/05 13:39:44;;;;;;;11.90;4.95;;;;;;;;;;5107924;28;20052;-69
2022/11/05 13:42:29;;;;;;;11.00;5.32;;;;;;;;;;5055374;28;20815;-70
2022/11/05 13:45:01;;;;;;;9.30;4.65;;;;;;;;;;5102617;28;20067;-68
2022/11/05 13:47:33;;;;;;;8.20;4.72;;;;;;;;;;5098446;28;20042;-68
2022/11/05 13:50:11;;;;;;;12.25;5.47;;;;;;;;;;5104271;28;20043;-69
2022/11/05 13:52:44;;;;;;;8.23;5.20;;;;;;;;;;5100522;28;20051;-68
2022/11/05 13:55:28;;;;;;;8.48;4.90;;;;;;;;;;5103112;28;20047;-67
2022/11/05 13:58:03;;;;;;;7.82;4.82;;;;;;;;;;5100151;28;20131;-70
2022/11/05 14:00:34;;;;;;;10.73;5.30;;;;;;;;;;5104291;28;20059;-69
2022/11/05 14:03:03;;;;;;;11.55;4.80;;;;;;;;;;5105654;28;20051;-70
2022/11/05 14:05:31;;;;;;;9.10;4.88;;;;;;;;;;5105556;28;20055;-70
2022/11/05 14:07:59;;;;;;;9.02;5.20;;;;;;;;;;5100242;27;20042;-70
2022/11/05 14:10:29;;;;;;;10.18;4.85;;;;;;;;;;5105848;28;20044;-70
2022/11/05 14:12:57;;;;;;;10.95;5.10;;;;;;;;;;5103115;28;20086;-69
2022/11/05 14:15:24;;;;;;;8.98;4.60;;;;;;;;;;5106439;28;20077;-69
2022/11/05 14:17:54;;;;;;;9.82;4.82;;;;;;;;;;5109873;28;20402;-67
2022/11/05 14:20:25;;;;;;;9.80;5.00;;;;;;;;;;5104719;28;20043;-67
2022/11/05 14:22:51;;;;;;;8.75;4.85;;;;;;;;;;5096906;28;20043;-68
2022/11/05 14:25:17;;;;;;;11.57;5.20;;;;;;;;;;5095670;28;20048;-68
2022/11/05 14:27:44;;;;;;;8.95;4.97;;;;;;;;;;5105142;28;20177;-67
2022/11/05 14:30:29;;;;;;;10.43;5.03;;;;;;;;;;5103362;27;20043;-69
2022/11/05 14:33:02;;;;;;;9.70;4.28;;;;;;;;;;5101050;28;20100;-69
2022/11/05 14:35:33;;;;;;;7.40;3.97;;;;;;;;;;5099003;28;20054;-67
2022/11/05 14:38:00;;;;;;;6.38;4.00;;;;;;;;;;5103313;28;20043;-70
2022/11/05 14:40:41;;;;;;;8.13;4.22;;;;;;;;;;5104554;28;20047;-69
2022/11/05 14:43:16;;;;;;;9.55;4.50;;;;;;;;;;5100675;28;20047;-69
2022/11/05 14:45:53;;;;;;;9.23;4.30;;;;;;;;;;5101293;28;20052;-70
2022/11/05 14:48:39;;;;;;;6.47;4.15;;;;;;;;;;5110132;27;20085;-69
2022/11/05 14:51:24;;;;;;;7.80;4.20;;;;;;;;;;5102935;28;22382;-66
2022/11/05 14:53:57;;;;;;;8.57;4.22;;;;;;;;;;5103434;28;20112;-67
2022/11/05 14:56:23;;;;;;;9.45;4.13;;;;;;;;;;5099781;28;20430;-67
2022/11/05 14:58:49;;;;;;;10.27;4.10;;;;;;;;;;5081795;28;20049;-67
2022/11/05 15:01:15;;;;;;;8.60;4.38;;;;;;;;;;5099598;28;20052;-67
2022/11/05 15:03:41;;;;;;;10.90;4.72;;;;;;;;;;5100759;28;20118;-67
2022/11/05 15:06:25;;;;;;;7.05;4.10;;;;;;;;;;5095933;28;20448;-67
2022/11/05 15:08:57;;;;;;;9.43;4.40;;;;;;;;;;5105380;27;20044;-70
2022/11/05 15:11:27;;;;;;;7.10;4.25;;;;;;;;;;5103876;28;20038;-69
2022/11/05 15:13:53;;;;;;;13.43;4.10;;;;;;;;;;5102440;27;20594;-70
2022/11/05 15:16:20;;;;;;;7.90;4.07;;;;;;;;;;5097707;28;20036;-68
2022/11/05 15:18:46;;;;;;;9.15;4.47;;;;;;;;;;5097416;28;20067;-68
2022/11/05 15:21:14;;;;;;;8.82;4.78;;;;;;;;;;5096172;28;20063;-70
2022/11/05 15:23:44;;;;;;;9.07;4.65;;;;;;;;;;5095448;27;20448;-70
2022/11/05 15:26:16;;;;;;;9.30;4.60;;;;;;;;;;5098982;28;20036;-68
2022/11/05 15:28:53;;;;;;;12.77;5.30;;;;;;;;;;5093190;28;20047;-68
2022/11/05 15:31:22;;;;;;;8.93;4.80;;;;;;;;;;5102199;28;20044;-69